LiveATC.Net - Listen to live air traffic control over the Internet!


ICAO: KBAF  IATA: BAF   Airport: Barnes Municipal Airport
City: Westfield/Springfield   State/Province: Massachusetts
Country: United States   Continent: North America
KBAF METAR Weather: KBAF 211003Z AUTO 20003KT 1/2SM R20/3500V4500FT FG VV002 02/02 A2985 RMK AO2 T00220022
KBAF Flight Activity (FlightAware)
KBAF Airport Info   (AirNav) (iFlightPlanner)
KBAF VFR Sectional Chart   (iFlightPlanner) 
KBAF IFR Low Chart   (iFlightPlanner) 
KBAF Ground/Tower
Feed Status: DOWN
Last heard on: 2017-01-19 02:15:03 (2 days 8 hours 33 minutes ago)
KBAF Ground/Tower Audio Archives
FacilityFrequency
Westfield Ground121.700
Westfield Tower118.900


NOTICE

Unauthorized use prohibited. See LiveATC.net Terms of Service


Find LiveATC Audio Streams


Airport/ARTCC Code

Frequency Search
(e.g., 124.400, 128.75)
Site-wide search
 


Browse LiveATC Feeds
LiveATC Coverage Map
Top 50 LiveATC Feeds
Bad Weather Areas

LiveATC FAQ
Offer a LiveATC Feed
Contact LiveATC.net
Press Inquiries

LiveATC on iPhone
LiveATC on Android

Windows Phone
Windows 8/10

LiveATC Mobile
(Mobile browser)

ATC Audio Archives
Interesting Recordings

LiveATC Forums


Home Page
About LiveATC.net
Make a Donation
LiveATC Store

Terms of Use
Privacy Policy

Canadian Air Freqs

AIRMETs/SIGMETs

FAA Airport Status
Nat'l Airspace Status
Arrival Demand Charts


Server Software By:
Icecast.org
Liquidsoap